sensor_id;sensor_type;location;lat;lon;timestamp;pressure;altitude;pressure_sealevel;temperature;humidity
1480;BME280;732;51.698;4.886;2023-02-17T00:01:36;102110.91;;;7.86;100.00
1480;BME280;732;51.698;4.886;2023-02-17T00:04:06;102135.81;;;7.98;100.00
1480;BME280;732;51.698;4.886;2023-02-17T00:06:34;102117.00;;;7.85;100.00
1480;BME280;732;51.698;4.886;2023-02-17T00:09:03;102134.06;;;7.99;100.00
1480;BME280;732;51.698;4.886;2023-02-17T00:11:31;102137.00;;;8.08;100.00
1480;BME280;732;51.698;4.886;2023-02-17T00:14:00;102138.31;;;7.95;100.00
1480;BME280;732;51.698;4.886;2023-02-17T00:16:29;102136.50;;;7.93;100.00
1480;BME280;732;51.698;4.886;2023-02-17T00:19:00;102121.13;;;7.78;100.00
1480;BME280;732;51.698;4.886;2023-02-17T00:21:54;102108.19;;;7.83;100.00
1480;BME280;732;51.698;4.886;2023-02-17T00:24:23;102120.59;;;7.88;100.00
1480;BME280;732;51.698;4.886;2023-02-17T00:26:52;102125.16;;;7.94;100.00
1480;BME280;732;51.698;4.886;2023-02-17T00:29:21;102108.50;;;7.92;100.00
1480;BME280;732;51.698;4.886;2023-02-17T00:31:52;102114.59;;;7.91;100.00
1480;BME280;732;51.698;4.886;2023-02-17T00:34:22;102111.13;;;7.92;100.00
1480;BME280;732;51.698;4.886;2023-02-17T00:36:53;102101.34;;;7.86;100.00
1480;BME280;732;51.698;4.886;2023-02-17T00:39:21;102109.28;;;7.89;100.00
1480;BME280;732;51.698;4.886;2023-02-17T00:41:49;102108.47;;;7.90;100.00
1480;BME280;732;51.698;4.886;2023-02-17T00:44:21;102112.34;;;7.76;100.00
1480;BME280;732;51.698;4.886;2023-02-17T00:46:51;102105.16;;;7.71;100.00
1480;BME280;732;51.698;4.886;2023-02-17T00:49:22;102101.38;;;7.63;100.00
1480;BME280;732;51.698;4.886;2023-02-17T00:51:52;102127.00;;;7.71;100.00
1480;BME280;732;51.698;4.886;2023-02-17T00:54:20;102114.38;;;7.85;100.00
1480;BME280;732;51.698;4.886;2023-02-17T00:56:49;102123.06;;;7.84;100.00
1480;BME280;732;51.698;4.886;2023-02-17T00:59:17;102100.09;;;7.75;100.00
1480;BME280;732;51.698;4.886;2023-02-17T01:01:46;102116.69;;;7.76;100.00
1480;BME280;732;51.698;4.886;2023-02-17T01:04:15;102108.06;;;7.80;100.00
1480;BME280;732;51.698;4.886;2023-02-17T01:06:45;102108.50;;;7.92;100.00
1480;BME280;732;51.698;4.886;2023-02-17T01:09:15;102109.91;;;7.82;100.00
1480;BME280;732;51.698;4.886;2023-02-17T01:11:43;102118.16;;;7.93;100.00
1480;BME280;732;51.698;4.886;2023-02-17T01:14:13;102108.94;;;7.79;100.00
1480;BME280;732;51.698;4.886;2023-02-17T01:16:46;102102.28;;;7.88;100.00
1480;BME280;732;51.698;4.886;2023-02-17T01:19:17;102108.72;;;7.73;100.00
1480;BME280;732;51.698;4.886;2023-02-17T01:21:48;102105.38;;;7.77;100.00
1480;BME280;732;51.698;4.886;2023-02-17T01:24:18;102099.22;;;7.76;100.00
1480;BME280;732;51.698;4.886;2023-02-17T01:26:46;102113.44;;;7.83;100.00
1480;BME280;732;51.698;4.886;2023-02-17T01:29:15;102107.03;;;7.75;100.00
1480;BME280;732;51.698;4.886;2023-02-17T01:31:43;102104.16;;;7.67;100.00
1480;BME280;732;51.698;4.886;2023-02-17T01:34:12;102091.13;;;7.69;100.00
1480;BME280;732;51.698;4.886;2023-02-17T01:36:42;102114.84;;;7.73;100.00
1480;BME280;732;51.698;4.886;2023-02-17T01:39:13;102114.22;;;7.80;100.00
1480;BME280;732;51.698;4.886;2023-02-17T01:41:43;102111.75;;;7.85;100.00
1480;BME280;732;51.698;4.886;2023-02-17T01:44:16;102107.16;;;7.78;100.00
1480;BME280;732;51.698;4.886;2023-02-17T01:46:46;102112.25;;;7.73;100.00
1480;BME280;732;51.698;4.886;2023-02-17T01:49:32;102098.88;;;7.66;100.00
1480;BME280;732;51.698;4.886;2023-02-17T01:52:10;102109.13;;;7.60;100.00
1480;BME280;732;51.698;4.886;2023-02-17T01:54:43;102117.38;;;7.70;100.00
1480;BME280;732;51.698;4.886;2023-02-17T01:57:17;102103.78;;;7.82;100.00
1480;BME280;732;51.698;4.886;2023-02-17T01:59:47;102102.06;;;7.82;100.00
1480;BME280;732;51.698;4.886;2023-02-17T02:02:16;102096.47;;;7.72;100.00
1480;BME280;732;51.698;4.886;2023-02-17T02:04:49;102093.56;;;7.64;100.00
1480;BME280;732;51.698;4.886;2023-02-17T02:07:21;102101.25;;;7.60;100.00
1480;BME280;732;51.698;4.886;2023-02-17T02:09:54;102081.91;;;7.54;100.00
1480;BME280;732;51.698;4.886;2023-02-17T02:12:27;102094.63;;;7.69;100.00
1480;BME280;732;51.698;4.886;2023-02-17T02:15:00;102095.28;;;7.64;100.00
1480;BME280;732;51.698;4.886;2023-02-17T02:17:35;102044.34;;;7.54;100.00
1480;BME280;732;51.698;4.886;2023-02-17T02:20:46;102082.66;;;7.76;100.00
1480;BME280;732;51.698;4.886;2023-02-17T02:23:55;102078.63;;;7.62;100.00
1480;BME280;732;51.698;4.886;2023-02-17T02:33:12;102061.84;;;7.55;100.00
1480;BME280;732;51.698;4.886;2023-02-17T02:35:53;102040.13;;;7.59;100.00
1480;BME280;732;51.698;4.886;2023-02-17T02:38:28;102031.91;;;7.72;100.00
1480;BME280;732;51.698;4.886;2023-02-17T02:41:04;102036.50;;;7.79;100.00
1480;BME280;732;51.698;4.886;2023-02-17T02:43:36;102023.13;;;7.70;100.00
1480;BME280;732;51.698;4.886;2023-02-17T02:46:05;102031.38;;;7.84;100.00
1480;BME280;732;51.698;4.886;2023-02-17T02:48:35;102046.25;;;7.83;100.00
1480;BME280;732;51.698;4.886;2023-02-17T02:51:35;102031.91;;;7.72;100.00
1480;BME280;732;51.698;4.886;2023-02-17T02:54:27;102027.94;;;7.60;100.00
1480;BME280;732;51.698;4.886;2023-02-17T02:57:31;102026.03;;;7.79;100.00
1480;BME280;732;51.698;4.886;2023-02-17T03:00:14;102034.66;;;7.77;100.00
1480;BME280;732;51.698;4.886;2023-02-17T03:02:51;102027.59;;;7.74;100.00
1480;BME280;732;51.698;4.886;2023-02-17T03:05:33;102017.63;;;7.64;100.00
1480;BME280;732;51.698;4.886;2023-02-17T03:08:09;102022.41;;;7.76;100.00
1480;BME280;732;51.698;4.886;2023-02-17T03:10:45;102025.13;;;7.79;100.00
1480;BME280;732;51.698;4.886;2023-02-17T03:13:14;102007.66;;;7.78;100.00
1480;BME280;732;51.698;4.886;2023-02-17T03:15:44;102007.31;;;7.69;100.00
1480;BME280;732;51.698;4.886;2023-02-17T03:18:13;101990.88;;;7.73;100.00
1480;BME280;732;51.698;4.886;2023-02-17T03:20:50;102009.50;;;7.82;100.00
1480;BME280;732;51.698;4.886;2023-02-17T03:23:20;102008.47;;;7.77;100.00
1480;BME280;732;51.698;4.886;2023-02-17T03:25:48;102020.09;;;7.85;100.00
1480;BME280;732;51.698;4.886;2023-02-17T03:28:17;102000.28;;;7.66;100.00
1480;BME280;732;51.698;4.886;2023-02-17T03:30:46;101995.03;;;7.66;100.00
1480;BME280;732;51.698;4.886;2023-02-17T03:33:14;102000.50;;;7.72;100.00
1480;BME280;732;51.698;4.886;2023-02-17T03:35:44;101983.88;;;7.72;100.00
1480;BME280;732;51.698;4.886;2023-02-17T03:38:13;101991.41;;;7.89;100.00
1480;BME280;732;51.698;4.886;2023-02-17T03:40:42;102006.75;;;7.77;100.00
1480;BME280;732;51.698;4.886;2023-02-17T03:43:10;101997.00;;;7.73;100.00
1480;BME280;732;51.698;4.886;2023-02-17T03:45:39;102000.63;;;7.77;100.00
1480;BME280;732;51.698;4.886;2023-02-17T03:48:07;101993.94;;;7.61;100.00
1480;BME280;732;51.698;4.886;2023-02-17T03:50:36;101978.53;;;7.69;100.00
1480;BME280;732;51.698;4.886;2023-02-17T03:53:05;101980.56;;;7.77;100.00
1480;BME280;732;51.698;4.886;2023-02-17T03:55:34;101996.31;;;7.79;100.00
1480;BME280;732;51.698;4.886;2023-02-17T03:58:03;101983.44;;;7.60;100.00
1480;BME280;732;51.698;4.886;2023-02-17T04:00:31;101982.44;;;7.56;100.00
1480;BME280;732;51.698;4.886;2023-02-17T04:03:00;101990.69;;;7.67;100.00
1480;BME280;732;51.698;4.886;2023-02-17T04:05:28;101994.91;;;7.63;100.00
1480;BME280;732;51.698;4.886;2023-02-17T04:07:57;101994.41;;;7.48;100.00
1480;BME280;732;51.698;4.886;2023-02-17T04:10:27;102006.19;;;7.61;100.00
1480;BME280;732;51.698;4.886;2023-02-17T04:12:55;101997.38;;;7.59;100.00
1480;BME280;732;51.698;4.886;2023-02-17T04:15:23;101995.03;;;7.66;100.00
1480;BME280;732;51.698;4.886;2023-02-17T04:17:52;101989.84;;;7.68;100.00
1480;BME280;732;51.698;4.886;2023-02-17T04:20:20;101994.97;;;7.65;100.00
1480;BME280;732;51.698;4.886;2023-02-17T04:22:49;101997.13;;;7.51;100.00
1480;BME280;732;51.698;4.886;2023-02-17T04:25:17;101995.53;;;7.56;100.00
1480;BME280;732;51.698;4.886;2023-02-17T04:27:47;102006.19;;;7.61;100.00
1480;BME280;732;51.698;4.886;2023-02-17T04:30:16;102024.66;;;7.65;100.00
1480;BME280;732;51.698;4.886;2023-02-17T04:32:44;102025.50;;;7.64;100.00
1480;BME280;732;51.698;4.886;2023-02-17T04:35:13;102023.91;;;7.68;100.00
1480;BME280;732;51.698;4.886;2023-02-17T04:37:41;102020.75;;;7.78;100.00
1480;BME280;732;51.698;4.886;2023-02-17T04:40:11;102016.13;;;7.71;100.00
1480;BME280;732;51.698;4.886;2023-02-17T04:42:40;102013.50;;;7.71;100.00
1480;BME280;732;51.698;4.886;2023-02-17T04:45:10;101997.59;;;7.65;100.00
1480;BME280;732;51.698;4.886;2023-02-17T04:47:39;102008.69;;;7.57;100.00
1480;BME280;732;51.698;4.886;2023-02-17T04:50:10;101994.72;;;7.57;100.00
1480;BME280;732;51.698;4.886;2023-02-17T04:52:39;102012.28;;;7.61;100.00
1480;BME280;732;51.698;4.886;2023-02-17T04:55:07;102026.97;;;7.56;100.00
1480;BME280;732;51.698;4.886;2023-02-17T04:57:36;102014.66;;;7.53;100.00
1480;BME280;732;51.698;4.886;2023-02-17T05:00:07;101999.88;;;7.55;100.00
1480;BME280;732;51.698;4.886;2023-02-17T05:02:37;102008.13;;;7.41;100.00
1480;BME280;732;51.698;4.886;2023-02-17T05:05:06;102003.19;;;7.50;100.00
1480;BME280;732;51.698;4.886;2023-02-17T05:07:35;101961.53;;;7.31;100.00
1480;BME280;732;51.698;4.886;2023-02-17T05:10:04;102006.63;;;7.47;100.00
1480;BME280;732;51.698;4.886;2023-02-17T05:12:32;102002.22;;;7.46;100.00
1480;BME280;732;51.698;4.886;2023-02-17T05:15:02;102008.00;;;7.36;100.00
1480;BME280;732;51.698;4.886;2023-02-17T05:17:30;102016.56;;;7.32;100.00
1480;BME280;732;51.698;4.886;2023-02-17T05:20:00;102018.38;;;7.35;100.00
1480;BME280;732;51.698;4.886;2023-02-17T05:22:29;102030.66;;;7.36;100.00
1480;BME280;732;51.698;4.886;2023-02-17T05:24:57;102035.84;;;7.34;100.00
1480;BME280;732;51.698;4.886;2023-02-17T05:27:25;102009.97;;;7.18;100.00
1480;BME280;732;51.698;4.886;2023-02-17T05:29:54;102032.28;;;7.32;100.00
1480;BME280;732;51.698;4.886;2023-02-17T05:32:22;102021.91;;;7.35;100.00
1480;BME280;732;51.698;4.886;2023-02-17T05:34:51;102016.75;;;7.38;100.00
1480;BME280;732;51.698;4.886;2023-02-17T05:37:20;102007.63;;;7.26;100.00
1480;BME280;732;51.698;4.886;2023-02-17T05:39:49;102023.00;;;7.42;100.00
1480;BME280;732;51.698;4.886;2023-02-17T05:42:17;102030.25;;;7.50;100.00
1480;BME280;732;51.698;4.886;2023-02-17T05:44:46;102019.53;;;7.43;100.00
1480;BME280;732;51.698;4.886;2023-02-17T05:47:14;102026.50;;;7.42;100.00
1480;BME280;732;51.698;4.886;2023-02-17T05:49:42;102028.44;;;7.48;100.00
1480;BME280;732;51.698;4.886;2023-02-17T05:52:11;102023.88;;;7.42;100.00
1480;BME280;732;51.698;4.886;2023-02-17T05:54:43;102010.66;;;7.38;100.00
1480;BME280;732;51.698;4.886;2023-02-17T05:57:11;102015.28;;;7.46;100.00
1480;BME280;732;51.698;4.886;2023-02-17T05:59:40;101977.31;;;7.32;100.00
1480;BME280;732;51.698;4.886;2023-02-17T06:02:09;101995.09;;;7.42;100.00
1480;BME280;732;51.698;4.886;2023-02-17T06:04:37;101991.28;;;7.33;100.00
1480;BME280;732;51.698;4.886;2023-02-17T06:07:06;102002.88;;;7.41;100.00
1480;BME280;732;51.698;4.886;2023-02-17T06:09:35;102003.75;;;7.40;100.00
1480;BME280;732;51.698;4.886;2023-02-17T06:12:05;101985.31;;;7.37;100.00
1480;BME280;732;51.698;4.886;2023-02-17T06:14:34;101992.88;;;7.54;100.00
1480;BME280;732;51.698;4.886;2023-02-17T06:17:02;101978.13;;;7.57;100.00
1480;BME280;732;51.698;4.886;2023-02-17T06:19:31;101982.50;;;7.57;100.00
1480;BME280;732;51.698;4.886;2023-02-17T06:21:59;101975.91;;;7.69;100.00
1480;BME280;732;51.698;4.886;2023-02-17T06:24:27;101980.63;;;7.53;100.00
1480;BME280;732;51.698;4.886;2023-02-17T06:26:56;101972.50;;;7.46;100.00
1480;BME280;732;51.698;4.886;2023-02-17T06:29:26;101973.38;;;7.45;100.00
1480;BME280;732;51.698;4.886;2023-02-17T06:31:54;101961.47;;;7.54;100.00
1480;BME280;732;51.698;4.886;2023-02-17T06:34:23;101984.56;;;7.41;100.00
1480;BME280;732;51.698;4.886;2023-02-17T06:36:52;101982.00;;;7.42;100.00
1480;BME280;732;51.698;4.886;2023-02-17T06:39:21;101983.19;;;7.52;100.00
1480;BME280;732;51.698;4.886;2023-02-17T06:41:50;101988.44;;;7.52;100.00
1480;BME280;732;51.698;4.886;2023-02-17T06:44:18;101972.59;;;7.47;100.00
1480;BME280;732;51.698;4.886;2023-02-17T06:46:48;101977.19;;;7.54;100.00
1480;BME280;732;51.698;4.886;2023-02-17T06:49:17;101996.53;;;7.60;100.00
1480;BME280;732;51.698;4.886;2023-02-17T06:51:47;101989.63;;;7.62;100.00
1480;BME280;732;51.698;4.886;2023-02-17T06:54:15;101997.78;;;7.71;100.00
1480;BME280;732;51.698;4.886;2023-02-17T06:56:44;102002.28;;;7.75;100.00
1480;BME280;732;51.698;4.886;2023-02-17T06:59:12;101987.47;;;7.75;100.00
1480;BME280;732;51.698;4.886;2023-02-17T07:01:41;101985.75;;;7.76;100.00
1480;BME280;732;51.698;4.886;2023-02-17T07:04:10;101973.28;;;7.69;100.00
1480;BME280;732;51.698;4.886;2023-02-17T07:06:39;101986.81;;;7.82;100.00
1480;BME280;732;51.698;4.886;2023-02-17T07:09:07;101980.69;;;7.82;100.00
1480;BME280;732;51.698;4.886;2023-02-17T07:11:37;101970.88;;;7.75;100.00
1480;BME280;732;51.698;4.886;2023-02-17T07:14:07;101985.88;;;7.80;100.00
1480;BME280;732;51.698;4.886;2023-02-17T07:16:35;101979.97;;;7.87;100.00
1480;BME280;732;51.698;4.886;2023-02-17T07:19:05;101987.34;;;7.99;100.00
1480;BME280;732;51.698;4.886;2023-02-17T07:21:35;101981.13;;;7.95;100.00
1480;BME280;732;51.698;4.886;2023-02-17T07:24:04;101947.41;;;7.78;100.00
1480;BME280;732;51.698;4.886;2023-02-17T07:26:35;101956.38;;;7.86;100.00
1480;BME280;732;51.698;4.886;2023-02-17T07:29:05;101955.50;;;7.85;100.00
1480;BME280;732;51.698;4.886;2023-02-17T07:31:34;101951.00;;;7.81;100.00
1480;BME280;732;51.698;4.886;2023-02-17T07:34:03;101963.59;;;7.93;100.00
1480;BME280;732;51.698;4.886;2023-02-17T07:36:32;101967.09;;;7.93;100.00
1480;BME280;732;51.698;4.886;2023-02-17T07:39:02;101941.47;;;7.83;100.00
1480;BME280;732;51.698;4.886;2023-02-17T07:41:31;101961.88;;;7.95;100.00
1480;BME280;732;51.698;4.886;2023-02-17T07:44:08;101950.50;;;7.93;100.00
1480;BME280;732;51.698;4.886;2023-02-17T07:46:36;101970.69;;;7.97;100.00
1480;BME280;732;51.698;4.886;2023-02-17T07:49:05;101981.47;;;8.06;100.00
1480;BME280;732;51.698;4.886;2023-02-17T07:51:34;101992.28;;;8.18;100.00
1480;BME280;732;51.698;4.886;2023-02-17T07:54:04;101986.13;;;8.16;100.00
1480;BME280;732;51.698;4.886;2023-02-17T07:56:33;101981.91;;;8.21;100.00
1480;BME280;732;51.698;4.886;2023-02-17T07:59:02;101980.81;;;8.13;100.00
1480;BME280;732;51.698;4.886;2023-02-17T08:01:30;101984.41;;;8.16;100.00
1480;BME280;732;51.698;4.886;2023-02-17T08:03:58;101983.72;;;8.23;100.00
1480;BME280;732;51.698;4.886;2023-02-17T08:06:27;101966.94;;;8.17;100.00
1480;BME280;732;51.698;4.886;2023-02-17T08:08:55;101969.88;;;8.27;100.00
1480;BME280;732;51.698;4.886;2023-02-17T08:11:43;101966.66;;;8.36;100.00
1480;BME280;732;51.698;4.886;2023-02-17T08:14:30;101978.13;;;8.41;100.00
1480;BME280;732;51.698;4.886;2023-02-17T08:16:59;101966.34;;;8.27;100.00
1480;BME280;732;51.698;4.886;2023-02-17T08:19:28;101985.22;;;8.43;100.00
1480;BME280;732;51.698;4.886;2023-02-17T08:22:13;101991.28;;;8.42;100.00
1480;BME280;732;51.698;4.886;2023-02-17T08:24:42;101996.53;;;8.42;100.00
1480;BME280;732;51.698;4.886;2023-02-17T08:27:13;101984.28;;;8.41;100.00
1480;BME280;732;51.698;4.886;2023-02-17T08:29:43;101986.09;;;8.44;100.00
1480;BME280;732;51.698;4.886;2023-02-17T08:32:13;101976.88;;;8.58;100.00
1480;BME280;732;51.698;4.886;2023-02-17T08:34:42;102004.81;;;8.56;100.00
1480;BME280;732;51.698;4.886;2023-02-17T08:37:11;102003.88;;;8.54;100.00
1480;BME280;732;51.698;4.886;2023-02-17T08:39:39;102005.69;;;8.57;100.00
1480;BME280;732;51.698;4.886;2023-02-17T08:42:13;101983.28;;;8.38;100.00
1480;BME280;732;51.698;4.886;2023-02-17T08:44:41;102011.06;;;8.61;100.00
1480;BME280;732;51.698;4.886;2023-02-17T08:47:11;101985.00;;;8.36;100.00
1480;BME280;732;51.698;4.886;2023-02-17T08:49:40;102009.16;;;8.56;100.00
1480;BME280;732;51.698;4.886;2023-02-17T08:52:09;102006.38;;;8.51;100.00
1480;BME280;732;51.698;4.886;2023-02-17T08:54:37;102027.91;;;8.69;100.00
1480;BME280;732;51.698;4.886;2023-02-17T08:57:06;102023.13;;;8.55;100.00
1480;BME280;732;51.698;4.886;2023-02-17T08:59:36;102021.66;;;8.64;100.00
1480;BME280;732;51.698;4.886;2023-02-17T09:02:04;102009.59;;;8.41;100.00
1480;BME280;732;51.698;4.886;2023-02-17T09:04:33;102048.03;;;8.70;100.00
1480;BME280;732;51.698;4.886;2023-02-17T09:07:01;102040.81;;;8.62;100.00
1480;BME280;732;51.698;4.886;2023-02-17T09:09:30;102014.88;;;8.72;100.00
1480;BME280;732;51.698;4.886;2023-02-17T09:11:58;102019.31;;;8.75;100.00
1480;BME280;732;51.698;4.886;2023-02-17T09:14:27;102017.53;;;8.74;100.00
1480;BME280;732;51.698;4.886;2023-02-17T09:16:57;102028.88;;;8.73;100.00
1480;BME280;732;51.698;4.886;2023-02-17T09:19:25;102019.03;;;8.64;100.00
1480;BME280;732;51.698;4.886;2023-02-17T09:21:55;102030.06;;;8.53;100.00
1480;BME280;732;51.698;4.886;2023-02-17T09:24:23;102023.84;;;8.49;100.00
1480;BME280;732;51.698;4.886;2023-02-17T09:26:52;102024.31;;;8.66;100.00
1480;BME280;732;51.698;4.886;2023-02-17T09:29:20;102040.84;;;8.63;100.00
1480;BME280;732;51.698;4.886;2023-02-17T09:31:49;102046.34;;;8.72;100.00
1480;BME280;732;51.698;4.886;2023-02-17T09:34:19;102051.78;;;8.78;100.00
1480;BME280;732;51.698;4.886;2023-02-17T09:36:47;102040.44;;;8.79;100.00
1480;BME280;732;51.698;4.886;2023-02-17T09:39:17;102036.22;;;8.84;100.00
1480;BME280;732;51.698;4.886;2023-02-17T09:41:48;102045.78;;;8.82;100.00
1480;BME280;732;51.698;4.886;2023-02-17T09:44:21;102035.13;;;8.78;100.00
1480;BME280;732;51.698;4.886;2023-02-17T09:46:59;102064.81;;;8.75;100.00
1480;BME280;732;51.698;4.886;2023-02-17T09:49:37;102051.63;;;8.74;100.00
1480;BME280;732;51.698;4.886;2023-02-17T09:52:12;102032.44;;;8.75;100.00
1480;BME280;732;51.698;4.886;2023-02-17T09:54:51;102059.72;;;8.81;100.00
1480;BME280;732;51.698;4.886;2023-02-17T09:57:27;102051.91;;;8.83;100.00
1480;BME280;732;51.698;4.886;2023-02-17T10:00:01;102049.38;;;8.86;100.00
1480;BME280;732;51.698;4.886;2023-02-17T10:02:40;102042.97;;;8.76;100.00
1480;BME280;732;51.698;4.886;2023-02-17T10:05:19;102039.25;;;8.99;100.00
1480;BME280;732;51.698;4.886;2023-02-17T10:07:53;102047.00;;;8.95;100.00
1480;BME280;732;51.698;4.886;2023-02-17T10:10:27;102056.66;;;8.96;100.00
1480;BME280;732;51.698;4.886;2023-02-17T10:12:59;102056.28;;;9.13;100.00
1480;BME280;732;51.698;4.886;2023-02-17T10:15:34;102047.81;;;9.23;100.00
1480;BME280;732;51.698;4.886;2023-02-17T10:18:13;102044.06;;;9.14;100.00
1480;BME280;732;51.698;4.886;2023-02-17T10:20:50;102042.63;;;8.95;100.00
1480;BME280;732;51.698;4.886;2023-02-17T10:23:22;102040.16;;;8.70;100.00
1480;BME280;732;51.698;4.886;2023-02-17T10:26:04;102069.72;;;8.94;100.00
1480;BME280;732;51.698;4.886;2023-02-17T10:28:51;102064.03;;;9.07;100.00
1480;BME280;732;51.698;4.886;2023-02-17T10:31:32;102066.56;;;9.06;100.00
1480;BME280;732;51.698;4.886;2023-02-17T10:34:09;102067.25;;;9.00;100.00
1480;BME280;732;51.698;4.886;2023-02-17T10:36:51;102099.53;;;9.26;100.00
1480;BME280;732;51.698;4.886;2023-02-17T10:39:35;102104.66;;;9.21;100.00
1480;BME280;732;51.698;4.886;2023-02-17T10:42:17;102113.84;;;9.37;100.00
1480;BME280;732;51.698;4.886;2023-02-17T10:44:49;102108.63;;;9.38;100.00
1480;BME280;732;51.698;4.886;2023-02-17T10:47:20;102098.66;;;9.27;100.00
1480;BME280;732;51.698;4.886;2023-02-17T10:49:51;102067.94;;;8.93;100.00
1480;BME280;732;51.698;4.886;2023-02-17T10:52:26;102090.50;;;9.16;100.00
1480;BME280;732;51.698;4.886;2023-02-17T10:55:04;102058.03;;;8.83;100.00
1480;BME280;732;51.698;4.886;2023-02-17T10:57:53;102086.84;;;9.11;100.00
1480;BME280;732;51.698;4.886;2023-02-17T11:00:24;102077.63;;;9.25;100.00
1480;BME280;732;51.698;4.886;2023-02-17T11:02:53;102071.44;;;9.23;100.00
1480;BME280;732;51.698;4.886;2023-02-17T11:05:25;102092.53;;;9.26;100.00
1480;BME280;732;51.698;4.886;2023-02-17T11:07:58;102077.06;;;9.37;100.00
1480;BME280;732;51.698;4.886;2023-02-17T11:10:31;102057.34;;;9.53;100.00
1480;BME280;732;51.698;4.886;2023-02-17T11:13:02;102050.56;;;9.62;100.00
1480;BME280;732;51.698;4.886;2023-02-17T11:15:41;102066.94;;;9.51;100.00
1480;BME280;732;51.698;4.886;2023-02-17T11:18:19;102034.56;;;9.52;100.00
1480;BME280;732;51.698;4.886;2023-02-17T11:20:48;102021.59;;;9.58;100.00
1480;BME280;732;51.698;4.886;2023-02-17T11:23:24;102032.50;;;9.74;100.00
1480;BME280;732;51.698;4.886;2023-02-17T11:26:07;102054.22;;;10.03;100.00
1480;BME280;732;51.698;4.886;2023-02-17T11:28:36;102052.47;;;10.03;100.00
1480;BME280;732;51.698;4.886;2023-02-17T11:31:22;102038.38;;;9.64;100.00
1480;BME280;732;51.698;4.886;2023-02-17T11:33:51;102060.63;;;9.78;100.00
1480;BME280;732;51.698;4.886;2023-02-17T11:36:25;102087.50;;;9.68;100.00
1480;BME280;732;51.698;4.886;2023-02-17T11:38:57;102063.38;;;9.16;100.00
1480;BME280;732;51.698;4.886;2023-02-17T11:41:37;102092.66;;;9.31;100.00
1480;BME280;732;51.698;4.886;2023-02-17T11:44:08;102077.56;;;9.22;100.00
1480;BME280;732;51.698;4.886;2023-02-17T11:46:43;102056.06;;;9.06;100.00
1480;BME280;732;51.698;4.886;2023-02-17T11:49:54;102074.16;;;8.97;100.00
1480;BME280;732;51.698;4.886;2023-02-17T11:52:45;102103.28;;;9.04;100.00
1480;BME280;732;51.698;4.886;2023-02-17T11:55:28;102043.47;;;8.94;100.00
1480;BME280;732;51.698;4.886;2023-02-17T11:58:17;102098.72;;;9.28;100.00
1480;BME280;732;51.698;4.886;2023-02-17T12:00:56;102088.72;;;9.15;100.00
1480;BME280;732;51.698;4.886;2023-02-17T12:04:11;102103.63;;;9.16;100.00
1480;BME280;732;51.698;4.886;2023-02-17T12:06:51;102100.88;;;9.12;100.00
1480;BME280;732;51.698;4.886;2023-02-17T12:09:29;102079.56;;;9.01;100.00
1480;BME280;732;51.698;4.886;2023-02-17T12:12:12;102083.22;;;9.06;100.00
1480;BME280;732;51.698;4.886;2023-02-17T12:14:57;102084.50;;;9.20;100.00
1480;BME280;732;51.698;4.886;2023-02-17T12:17:40;102094.84;;;9.14;100.00
1480;BME280;732;51.698;4.886;2023-02-17T12:20:34;102108.88;;;9.16;100.00
1480;BME280;732;51.698;4.886;2023-02-17T12:26:10;102117.34;;;9.06;100.00
1480;BME280;732;51.698;4.886;2023-02-17T12:28:54;102130.44;;;9.05;100.00
1480;BME280;732;51.698;4.886;2023-02-17T12:31:49;102099.44;;;8.93;100.00
1480;BME280;732;51.698;4.886;2023-02-17T12:34:27;102108.72;;;9.10;100.00
1480;BME280;732;51.698;4.886;2023-02-17T12:36:57;102124.94;;;9.27;100.00
1480;BME280;732;51.698;4.886;2023-02-17T12:39:32;102129.47;;;9.32;100.00
1480;BME280;732;51.698;4.886;2023-02-17T12:42:08;102078.25;;;8.87;100.00
1480;BME280;732;51.698;4.886;2023-02-17T12:44:46;102111.91;;;9.02;100.00
1480;BME280;732;51.698;4.886;2023-02-17T12:47:24;102127.13;;;9.12;100.00
1480;BME280;732;51.698;4.886;2023-02-17T12:50:02;102141.09;;;9.11;100.00
1480;BME280;732;51.698;4.886;2023-02-17T12:52:38;102135.75;;;9.08;100.00
1480;BME280;732;51.698;4.886;2023-02-17T12:55:15;102135.25;;;9.21;100.00
1480;BME280;732;51.698;4.886;2023-02-17T12:57:50;102146.22;;;9.06;100.00
1480;BME280;732;51.698;4.886;2023-02-17T13:00:33;102140.16;;;9.09;100.00
1480;BME280;732;51.698;4.886;2023-02-17T13:03:03;102127.31;;;8.90;100.00
1480;BME280;732;51.698;4.886;2023-02-17T13:05:37;102136.88;;;8.88;100.00
1480;BME280;732;51.698;4.886;2023-02-17T13:08:12;102119.94;;;8.77;100.00
1480;BME280;732;51.698;4.886;2023-02-17T13:10:43;102139.44;;;8.85;100.00
1480;BME280;732;51.698;4.886;2023-02-17T13:13:25;102160.34;;;8.83;100.00
1480;BME280;732;51.698;4.886;2023-02-17T13:16:04;102157.00;;;8.89;100.00
1480;BME280;732;51.698;4.886;2023-02-17T13:18:36;102175.09;;;9.06;100.00
1480;BME280;732;51.698;4.886;2023-02-17T13:21:24;102170.31;;;9.23;100.00
1480;BME280;732;51.698;4.886;2023-02-17T13:24:00;102152.59;;;9.14;100.00
1480;BME280;732;51.698;4.886;2023-02-17T13:26:31;102125.97;;;8.74;100.00
1480;BME280;732;51.698;4.886;2023-02-17T13:29:31;102172.13;;;8.96;100.00
1480;BME280;732;51.698;4.886;2023-02-17T13:32:04;102157.13;;;8.92;100.00
1480;BME280;732;51.698;4.886;2023-02-17T13:34:36;102174.81;;;8.99;100.00
1480;BME280;732;51.698;4.886;2023-02-17T13:37:18;102157.59;;;9.07;100.00
1480;BME280;732;51.698;4.886;2023-02-17T13:39:46;102179.56;;;9.10;100.00
1480;BME280;732;51.698;4.886;2023-02-17T13:42:38;102215.44;;;9.10;100.00
1480;BME280;732;51.698;4.886;2023-02-17T13:45:22;102198.03;;;9.13;100.00
1480;BME280;732;51.698;4.886;2023-02-17T13:47:55;102189.56;;;9.22;100.00
1480;BME280;732;51.698;4.886;2023-02-17T13:50:31;102172.19;;;8.99;100.00
1480;BME280;732;51.698;4.886;2023-02-17T13:53:01;102189.59;;;9.23;100.00
1480;BME280;732;51.698;4.886;2023-02-17T13:55:30;102154.81;;;9.02;100.00
1480;BME280;732;51.698;4.886;2023-02-17T13:57:59;102176.69;;;9.31;100.00
1480;BME280;732;51.698;4.886;2023-02-17T14:00:29;102142.25;;;9.20;100.00
1480;BME280;732;51.698;4.886;2023-02-17T14:03:13;102183.28;;;9.48;100.00